sensor_id;sensor_type;location;lat;lon;timestamp;P1;durP1;ratioP1;P2;durP2;ratioP2
13855;SDS011;6998;53.608;9.958;2023-01-29T17:29:48;39.77;;;33.80;;
13855;SDS011;6998;53.608;9.958;2023-01-29T17:32:15;86.43;;;55.10;;
13855;SDS011;6998;53.608;9.958;2023-01-29T17:34:43;40.27;;;30.53;;
13855;SDS011;6998;53.608;9.958;2023-01-29T17:37:12;39.37;;;32.20;;
13855;SDS011;6998;53.608;9.958;2023-01-29T17:39:40;39.70;;;30.33;;
13855;SDS011;6998;53.608;9.958;2023-01-29T17:42:09;36.13;;;30.23;;
13855;SDS011;6998;53.608;9.958;2023-01-29T17:44:39;35.07;;;29.03;;
13855;SDS011;6998;53.608;9.958;2023-01-29T17:47:11;37.07;;;29.90;;
13855;SDS011;6998;53.608;9.958;2023-01-29T17:49:39;36.67;;;29.60;;
13855;SDS011;6998;53.608;9.958;2023-01-29T17:52:07;33.10;;;28.17;;
13855;SDS011;6998;53.608;9.958;2023-01-29T17:54:34;35.50;;;29.50;;
13855;SDS011;6998;53.608;9.958;2023-01-29T17:57:01;36.27;;;28.77;;
13855;SDS011;6998;53.608;9.958;2023-01-29T17:59:29;35.90;;;28.97;;
13855;SDS011;6998;53.608;9.958;2023-01-29T18:01:57;35.60;;;28.93;;
13855;SDS011;6998;53.608;9.958;2023-01-29T18:04:26;35.97;;;28.23;;
13855;SDS011;6998;53.608;9.958;2023-01-29T18:06:53;34.67;;;28.23;;
13855;SDS011;6998;53.608;9.958;2023-01-29T18:09:22;33.20;;;28.03;;
13855;SDS011;6998;53.608;9.958;2023-01-29T18:11:49;38.97;;;32.88;;
13855;SDS011;6998;53.608;9.958;2023-01-29T18:14:17;37.13;;;30.27;;
13855;SDS011;6998;53.608;9.958;2023-01-29T18:16:45;35.20;;;29.43;;
13855;SDS011;6998;53.608;9.958;2023-01-29T18:19:15;33.23;;;27.97;;
13855;SDS011;6998;53.608;9.958;2023-01-29T18:21:53;34.23;;;27.87;;
13855;SDS011;6998;53.608;9.958;2023-01-29T18:24:20;33.50;;;26.60;;
13855;SDS011;6998;53.608;9.958;2023-01-29T18:26:49;33.37;;;27.17;;
13855;SDS011;6998;53.608;9.958;2023-01-29T18:29:16;32.20;;;27.43;;
13855;SDS011;6998;53.608;9.958;2023-01-29T18:31:44;34.83;;;27.97;;
13855;SDS011;6998;53.608;9.958;2023-01-29T18:34:14;34.87;;;28.07;;
13855;SDS011;6998;53.608;9.958;2023-01-29T18:36:43;35.37;;;28.13;;
13855;SDS011;6998;53.608;9.958;2023-01-29T18:39:13;34.57;;;28.47;;
13855;SDS011;6998;53.608;9.958;2023-01-29T18:41:40;34.73;;;28.53;;
13855;SDS011;6998;53.608;9.958;2023-01-29T18:44:10;33.23;;;28.33;;
13855;SDS011;6998;53.608;9.958;2023-01-29T18:46:37;32.77;;;27.77;;
13855;SDS011;6998;53.608;9.958;2023-01-29T18:49:04;36.97;;;29.50;;
13855;SDS011;6998;53.608;9.958;2023-01-29T18:51:31;34.67;;;28.00;;
13855;SDS011;6998;53.608;9.958;2023-01-29T18:53:58;32.97;;;27.47;;
13855;SDS011;6998;53.608;9.958;2023-01-29T18:56:26;33.80;;;29.23;;
13855;SDS011;6998;53.608;9.958;2023-01-29T18:58:53;46.83;;;34.17;;
13855;SDS011;6998;53.608;9.958;2023-01-29T19:01:22;38.83;;;32.17;;
13855;SDS011;6998;53.608;9.958;2023-01-29T19:03:51;40.67;;;31.87;;
13855;SDS011;6998;53.608;9.958;2023-01-29T19:06:20;42.20;;;31.97;;
13855;SDS011;6998;53.608;9.958;2023-01-29T19:08:47;42.03;;;32.50;;
13855;SDS011;6998;53.608;9.958;2023-01-29T19:19:53;48.00;;;34.33;;
13855;SDS011;6998;53.608;9.958;2023-01-29T19:22:25;49.10;;;35.47;;
13855;SDS011;6998;53.608;9.958;2023-01-29T19:24:53;49.93;;;36.73;;
13855;SDS011;6998;53.608;9.958;2023-01-29T19:27:20;53.97;;;39.57;;
13855;SDS011;6998;53.608;9.958;2023-01-29T19:29:47;51.77;;;38.77;;
13855;SDS011;6998;53.608;9.958;2023-01-29T19:32:14;56.97;;;39.93;;
13855;SDS011;6998;53.608;9.958;2023-01-29T19:34:41;49.83;;;36.40;;
13855;SDS011;6998;53.608;9.958;2023-01-29T19:37:09;53.47;;;37.90;;
13855;SDS011;6998;53.608;9.958;2023-01-29T19:39:36;56.47;;;40.80;;
13855;SDS011;6998;53.608;9.958;2023-01-29T19:42:03;58.90;;;41.40;;
13855;SDS011;6998;53.608;9.958;2023-01-29T19:44:30;60.07;;;41.07;;
13855;SDS011;6998;53.608;9.958;2023-01-29T19:46:57;56.00;;;40.43;;
13855;SDS011;6998;53.608;9.958;2023-01-29T19:49:24;56.13;;;40.27;;
13855;SDS011;6998;53.608;9.958;2023-01-29T19:51:50;61.73;;;42.07;;
13855;SDS011;6998;53.608;9.958;2023-01-29T19:54:21;61.63;;;41.00;;
13855;SDS011;6998;53.608;9.958;2023-01-29T19:56:48;61.80;;;40.87;;
13855;SDS011;6998;53.608;9.958;2023-01-29T19:59:14;62.33;;;41.87;;
13855;SDS011;6998;53.608;9.958;2023-01-29T20:01:41;60.10;;;41.77;;
13855;SDS011;6998;53.608;9.958;2023-01-29T20:04:09;61.23;;;41.63;;
13855;SDS011;6998;53.608;9.958;2023-01-29T20:06:36;64.97;;;44.30;;
13855;SDS011;6998;53.608;9.958;2023-01-29T20:11:50;96.73;;;55.30;;
13855;SDS011;6998;53.608;9.958;2023-01-29T20:23:14;64.80;;;42.43;;
13855;SDS011;6998;53.608;9.958;2023-01-29T20:25:42;66.23;;;43.00;;
13855;SDS011;6998;53.608;9.958;2023-01-29T20:28:29;66.40;;;41.87;;
13855;SDS011;6998;53.608;9.958;2023-01-29T20:30:55;66.07;;;43.67;;
13855;SDS011;6998;53.608;9.958;2023-01-29T20:33:23;67.27;;;43.27;;
13855;SDS011;6998;53.608;9.958;2023-01-29T20:35:52;62.47;;;41.17;;
13855;SDS011;6998;53.608;9.958;2023-01-29T20:38:19;60.20;;;42.67;;
13855;SDS011;6998;53.608;9.958;2023-01-29T20:40:46;65.87;;;42.70;;
13855;SDS011;6998;53.608;9.958;2023-01-29T20:43:13;64.10;;;43.23;;
13855;SDS011;6998;53.608;9.958;2023-01-29T20:55:50;67.20;;;42.83;;
13855;SDS011;6998;53.608;9.958;2023-01-29T20:58:17;66.83;;;43.33;;
13855;SDS011;6998;53.608;9.958;2023-01-29T21:04:06;62.27;;;41.87;;
13855;SDS011;6998;53.608;9.958;2023-01-29T21:15:26;66.63;;;42.40;;
13855;SDS011;6998;53.608;9.958;2023-01-29T21:20:47;60.63;;;42.23;;
13855;SDS011;6998;53.608;9.958;2023-01-29T21:26:37;61.43;;;42.13;;
13855;SDS011;6998;53.608;9.958;2023-01-29T21:47:35;70.50;;;43.07;;
13855;SDS011;6998;53.608;9.958;2023-01-29T21:50:02;59.67;;;40.67;;
13855;SDS011;6998;53.608;9.958;2023-01-29T21:52:31;61.03;;;41.97;;
13855;SDS011;6998;53.608;9.958;2023-01-29T22:18:13;61.27;;;38.73;;
13855;SDS011;6998;53.608;9.958;2023-01-29T22:30:46;61.93;;;40.40;;
13855;SDS011;6998;53.608;9.958;2023-01-29T22:33:14;60.87;;;39.97;;
13855;SDS011;6998;53.608;9.958;2023-01-29T22:35:52;57.07;;;37.57;;
13855;SDS011;6998;53.608;9.958;2023-01-29T22:47:05;57.10;;;36.17;;
13855;SDS011;6998;53.608;9.958;2023-01-29T22:49:32;50.10;;;34.77;;
13855;SDS011;6998;53.608;9.958;2023-01-29T22:51:59;53.83;;;35.43;;
13855;SDS011;6998;53.608;9.958;2023-01-29T23:01:48;46.67;;;34.07;;
13855;SDS011;6998;53.608;9.958;2023-01-29T23:10:31;50.50;;;32.90;;
13855;SDS011;6998;53.608;9.958;2023-01-29T23:12:58;49.43;;;34.73;;
13855;SDS011;6998;53.608;9.958;2023-01-29T23:15:24;50.27;;;35.17;;
13855;SDS011;6998;53.608;9.958;2023-01-29T23:17:51;47.80;;;33.27;;
13855;SDS011;6998;53.608;9.958;2023-01-29T23:20:18;52.40;;;34.63;;
13855;SDS011;6998;53.608;9.958;2023-01-29T23:22:45;51.00;;;34.37;;
13855;SDS011;6998;53.608;9.958;2023-01-29T23:25:13;49.70;;;34.23;;
13855;SDS011;6998;53.608;9.958;2023-01-29T23:27:42;49.03;;;35.03;;
13855;SDS011;6998;53.608;9.958;2023-01-29T23:30:09;49.60;;;34.10;;
13855;SDS011;6998;53.608;9.958;2023-01-29T23:32:44;48.30;;;33.33;;
13855;SDS011;6998;53.608;9.958;2023-01-29T23:36:05;46.80;;;34.20;;
13855;SDS011;6998;53.608;9.958;2023-01-29T23:38:55;49.23;;;34.17;;
13855;SDS011;6998;53.608;9.958;2023-01-29T23:41:59;45.70;;;32.60;;
